sensor_id;sensor_type;location;lat;lon;timestamp;temperature;humidity
10129;DHT22;5104;50.720;7.044;2022-08-21T00:02:27;17.30;99.90
10129;DHT22;5104;50.720;7.044;2022-08-21T00:04:54;17.20;99.90
10129;DHT22;5104;50.720;7.044;2022-08-21T00:07:21;17.20;1.00
10129;DHT22;5104;50.720;7.044;2022-08-21T00:09:48;17.20;99.90
10129;DHT22;5104;50.720;7.044;2022-08-21T00:12:15;17.20;1.00
10129;DHT22;5104;50.720;7.044;2022-08-21T00:14:42;17.10;1.00
10129;DHT22;5104;50.720;7.044;2022-08-21T00:17:09;17.10;1.00
10129;DHT22;5104;50.720;7.044;2022-08-21T00:19:37;17.00;1.00
10129;DHT22;5104;50.720;7.044;2022-08-21T00:22:04;16.90;1.00
10129;DHT22;5104;50.720;7.044;2022-08-21T00:24:31;16.90;1.00
10129;DHT22;5104;50.720;7.044;2022-08-21T00:26:58;16.80;1.00
10129;DHT22;5104;50.720;7.044;2022-08-21T00:29:25;16.70;1.00
10129;DHT22;5104;50.720;7.044;2022-08-21T00:31:52;16.60;1.00
10129;DHT22;5104;50.720;7.044;2022-08-21T00:34:20;16.60;1.00
10129;DHT22;5104;50.720;7.044;2022-08-21T00:36:48;16.50;1.00
10129;DHT22;5104;50.720;7.044;2022-08-21T00:39:15;16.50;1.00
10129;DHT22;5104;50.720;7.044;2022-08-21T00:41:43;16.40;1.00
10129;DHT22;5104;50.720;7.044;2022-08-21T00:44:13;16.40;1.00
10129;DHT22;5104;50.720;7.044;2022-08-21T00:46:41;16.40;1.00
10129;DHT22;5104;50.720;7.044;2022-08-21T00:49:10;16.40;1.00
10129;DHT22;5104;50.720;7.044;2022-08-21T00:51:40;16.40;1.00
10129;DHT22;5104;50.720;7.044;2022-08-21T00:54:10;16.40;1.00
10129;DHT22;5104;50.720;7.044;2022-08-21T00:56:38;16.40;1.00
10129;DHT22;5104;50.720;7.044;2022-08-21T00:59:05;16.40;1.00
10129;DHT22;5104;50.720;7.044;2022-08-21T01:01:33;16.30;1.00
10129;DHT22;5104;50.720;7.044;2022-08-21T01:04:00;16.30;1.00
10129;DHT22;5104;50.720;7.044;2022-08-21T01:06:27;16.20;1.00
10129;DHT22;5104;50.720;7.044;2022-08-21T01:08:54;16.10;14.30
10129;DHT22;5104;50.720;7.044;2022-08-21T01:11:22;16.10;35.70
10129;DHT22;5104;50.720;7.044;2022-08-21T01:13:49;16.10;13.70
10129;DHT22;5104;50.720;7.044;2022-08-21T01:16:18;16.00;20.90
10129;DHT22;5104;50.720;7.044;2022-08-21T01:18:47;16.00;25.10
10129;DHT22;5104;50.720;7.044;2022-08-21T01:21:18;15.90;45.80
10129;DHT22;5104;50.720;7.044;2022-08-21T01:23:47;15.90;35.90
10129;DHT22;5104;50.720;7.044;2022-08-21T01:26:16;15.80;59.80
10129;DHT22;5104;50.720;7.044;2022-08-21T01:28:47;15.80;80.10
10129;DHT22;5104;50.720;7.044;2022-08-21T01:31:19;15.70;94.40
10129;DHT22;5104;50.720;7.044;2022-08-21T01:33:48;15.70;73.90
10129;DHT22;5104;50.720;7.044;2022-08-21T01:36:17;15.70;97.00
10129;DHT22;5104;50.720;7.044;2022-08-21T01:38:44;15.70;74.90
10129;DHT22;5104;50.720;7.044;2022-08-21T01:41:11;15.60;64.50
10129;DHT22;5104;50.720;7.044;2022-08-21T01:43:38;15.50;99.90
10129;DHT22;5104;50.720;7.044;2022-08-21T01:46:05;15.40;99.90
10129;DHT22;5104;50.720;7.044;2022-08-21T01:48:33;15.30;99.90
10129;DHT22;5104;50.720;7.044;2022-08-21T01:51:00;15.20;99.90
10129;DHT22;5104;50.720;7.044;2022-08-21T01:53:28;15.10;99.90
10129;DHT22;5104;50.720;7.044;2022-08-21T01:55:55;15.10;99.90
10129;DHT22;5104;50.720;7.044;2022-08-21T01:58:22;15.00;99.90
10129;DHT22;5104;50.720;7.044;2022-08-21T02:00:48;15.00;99.90
10129;DHT22;5104;50.720;7.044;2022-08-21T02:03:15;15.00;99.90
10129;DHT22;5104;50.720;7.044;2022-08-21T02:05:42;14.90;99.90
10129;DHT22;5104;50.720;7.044;2022-08-21T02:08:09;14.90;99.90
10129;DHT22;5104;50.720;7.044;2022-08-21T02:10:38;14.90;99.90
10129;DHT22;5104;50.720;7.044;2022-08-21T02:13:06;14.80;99.90
10129;DHT22;5104;50.720;7.044;2022-08-21T02:15:34;14.80;99.90
10129;DHT22;5104;50.720;7.044;2022-08-21T02:18:02;14.90;99.90
10129;DHT22;5104;50.720;7.044;2022-08-21T02:20:33;14.90;99.90
10129;DHT22;5104;50.720;7.044;2022-08-21T02:23:01;14.90;99.90
10129;DHT22;5104;50.720;7.044;2022-08-21T02:25:28;14.90;99.90
10129;DHT22;5104;50.720;7.044;2022-08-21T02:27:58;14.90;99.90
10129;DHT22;5104;50.720;7.044;2022-08-21T02:30:28;14.90;99.90
10129;DHT22;5104;50.720;7.044;2022-08-21T02:32:56;14.90;99.90
10129;DHT22;5104;50.720;7.044;2022-08-21T02:35:23;14.90;99.90
10129;DHT22;5104;50.720;7.044;2022-08-21T02:37:52;14.80;99.90
10129;DHT22;5104;50.720;7.044;2022-08-21T02:40:22;14.80;99.90
10129;DHT22;5104;50.720;7.044;2022-08-21T02:42:50;14.90;99.90
10129;DHT22;5104;50.720;7.044;2022-08-21T02:45:18;14.90;99.90
10129;DHT22;5104;50.720;7.044;2022-08-21T02:47:49;14.80;99.90
10129;DHT22;5104;50.720;7.044;2022-08-21T02:50:18;14.70;99.90
10129;DHT22;5104;50.720;7.044;2022-08-21T02:52:47;14.60;99.90
10129;DHT22;5104;50.720;7.044;2022-08-21T02:55:14;14.40;99.90
10129;DHT22;5104;50.720;7.044;2022-08-21T02:57:41;14.40;99.90
10129;DHT22;5104;50.720;7.044;2022-08-21T03:00:10;14.30;99.90
10129;DHT22;5104;50.720;7.044;2022-08-21T03:02:39;14.40;99.90
10129;DHT22;5104;50.720;7.044;2022-08-21T03:05:08;14.40;99.90
10129;DHT22;5104;50.720;7.044;2022-08-21T03:07:35;14.50;99.90
10129;DHT22;5104;50.720;7.044;2022-08-21T03:10:03;14.50;99.90
10129;DHT22;5104;50.720;7.044;2022-08-21T03:12:29;14.50;99.90
10129;DHT22;5104;50.720;7.044;2022-08-21T03:14:56;14.50;99.90
10129;DHT22;5104;50.720;7.044;2022-08-21T03:17:24;14.60;99.90
10129;DHT22;5104;50.720;7.044;2022-08-21T03:19:52;14.60;99.90
10129;DHT22;5104;50.720;7.044;2022-08-21T03:22:19;14.60;99.90
10129;DHT22;5104;50.720;7.044;2022-08-21T03:24:46;14.60;99.90
10129;DHT22;5104;50.720;7.044;2022-08-21T03:27:13;14.60;99.90
10129;DHT22;5104;50.720;7.044;2022-08-21T03:29:40;14.60;99.90
10129;DHT22;5104;50.720;7.044;2022-08-21T03:32:07;14.60;99.90
10129;DHT22;5104;50.720;7.044;2022-08-21T03:34:35;14.60;99.90
10129;DHT22;5104;50.720;7.044;2022-08-21T03:37:05;14.50;99.90
10129;DHT22;5104;50.720;7.044;2022-08-21T03:39:32;14.40;99.90
10129;DHT22;5104;50.720;7.044;2022-08-21T03:42:00;14.40;99.90
10129;DHT22;5104;50.720;7.044;2022-08-21T03:44:27;14.40;99.90
10129;DHT22;5104;50.720;7.044;2022-08-21T03:46:55;14.40;99.90
10129;DHT22;5104;50.720;7.044;2022-08-21T03:49:22;14.40;99.90
10129;DHT22;5104;50.720;7.044;2022-08-21T03:51:49;14.40;99.90
10129;DHT22;5104;50.720;7.044;2022-08-21T03:54:18;14.40;99.90
10129;DHT22;5104;50.720;7.044;2022-08-21T03:56:45;14.40;99.90
10129;DHT22;5104;50.720;7.044;2022-08-21T03:59:12;14.30;99.90
10129;DHT22;5104;50.720;7.044;2022-08-21T04:01:39;14.30;99.90
10129;DHT22;5104;50.720;7.044;2022-08-21T04:04:06;14.10;99.90
10129;DHT22;5104;50.720;7.044;2022-08-21T04:06:33;14.10;99.90
10129;DHT22;5104;50.720;7.044;2022-08-21T04:09:00;13.90;99.90
10129;DHT22;5104;50.720;7.044;2022-08-21T04:11:28;13.90;99.90
10129;DHT22;5104;50.720;7.044;2022-08-21T04:13:55;13.80;99.90
10129;DHT22;5104;50.720;7.044;2022-08-21T04:16:22;13.80;99.90
10129;DHT22;5104;50.720;7.044;2022-08-21T04:18:48;13.70;99.90
10129;DHT22;5104;50.720;7.044;2022-08-21T04:21:16;13.60;99.90
10129;DHT22;5104;50.720;7.044;2022-08-21T04:23:43;13.60;99.90
10129;DHT22;5104;50.720;7.044;2022-08-21T04:26:10;13.60;99.90
10129;DHT22;5104;50.720;7.044;2022-08-21T04:28:38;13.60;99.90
10129;DHT22;5104;50.720;7.044;2022-08-21T04:31:05;13.70;99.90
10129;DHT22;5104;50.720;7.044;2022-08-21T04:33:32;13.70;99.90
10129;DHT22;5104;50.720;7.044;2022-08-21T04:35:59;13.80;99.90
10129;DHT22;5104;50.720;7.044;2022-08-21T04:38:27;13.80;99.90
10129;DHT22;5104;50.720;7.044;2022-08-21T04:40:55;13.80;99.90
10129;DHT22;5104;50.720;7.044;2022-08-21T04:43:21;13.80;99.90
10129;DHT22;5104;50.720;7.044;2022-08-21T04:45:50;13.80;99.90
10129;DHT22;5104;50.720;7.044;2022-08-21T04:48:20;13.90;99.90
10129;DHT22;5104;50.720;7.044;2022-08-21T04:50:55;13.90;99.90
10129;DHT22;5104;50.720;7.044;2022-08-21T04:53:26;14.00;99.90
10129;DHT22;5104;50.720;7.044;2022-08-21T04:55:59;14.10;99.90
10129;DHT22;5104;50.720;7.044;2022-08-21T04:58:28;14.10;99.90
10129;DHT22;5104;50.720;7.044;2022-08-21T05:00:58;14.10;99.90
10129;DHT22;5104;50.720;7.044;2022-08-21T05:03:27;14.20;99.90
10129;DHT22;5104;50.720;7.044;2022-08-21T05:05:56;14.20;99.90
10129;DHT22;5104;50.720;7.044;2022-08-21T05:08:25;14.20;99.90
10129;DHT22;5104;50.720;7.044;2022-08-21T05:10:53;14.30;99.90
10129;DHT22;5104;50.720;7.044;2022-08-21T05:13:20;14.40;99.90
10129;DHT22;5104;50.720;7.044;2022-08-21T05:15:47;14.40;99.90
10129;DHT22;5104;50.720;7.044;2022-08-21T05:18:15;14.40;99.90
10129;DHT22;5104;50.720;7.044;2022-08-21T05:20:42;14.50;99.90
10129;DHT22;5104;50.720;7.044;2022-08-21T05:23:12;14.40;99.90
10129;DHT22;5104;50.720;7.044;2022-08-21T05:25:40;14.40;99.90
10129;DHT22;5104;50.720;7.044;2022-08-21T05:28:09;14.50;99.90
10129;DHT22;5104;50.720;7.044;2022-08-21T05:30:36;14.60;99.90
10129;DHT22;5104;50.720;7.044;2022-08-21T05:33:05;14.70;92.50
10129;DHT22;5104;50.720;7.044;2022-08-21T05:35:34;14.80;48.90
10129;DHT22;5104;50.720;7.044;2022-08-21T05:38:01;15.00;29.20
10129;DHT22;5104;50.720;7.044;2022-08-21T05:40:29;15.10;23.50
10129;DHT22;5104;50.720;7.044;2022-08-21T05:42:57;15.30;8.20
10129;DHT22;5104;50.720;7.044;2022-08-21T05:45:26;15.40;1.00
10129;DHT22;5104;50.720;7.044;2022-08-21T05:47:53;15.50;1.00
10129;DHT22;5104;50.720;7.044;2022-08-21T05:50:19;15.60;1.00
10129;DHT22;5104;50.720;7.044;2022-08-21T05:52:48;15.60;1.00
10129;DHT22;5104;50.720;7.044;2022-08-21T05:55:15;15.70;1.00
10129;DHT22;5104;50.720;7.044;2022-08-21T05:57:42;15.70;1.00
10129;DHT22;5104;50.720;7.044;2022-08-21T06:00:09;15.90;1.00
10129;DHT22;5104;50.720;7.044;2022-08-21T06:02:37;16.00;1.00
10129;DHT22;5104;50.720;7.044;2022-08-21T06:05:05;16.00;1.00
10129;DHT22;5104;50.720;7.044;2022-08-21T06:07:32;15.80;1.00
10129;DHT22;5104;50.720;7.044;2022-08-21T06:10:00;15.90;1.00
10129;DHT22;5104;50.720;7.044;2022-08-21T06:12:27;16.10;1.00
10129;DHT22;5104;50.720;7.044;2022-08-21T06:14:54;16.20;99.90
10129;DHT22;5104;50.720;7.044;2022-08-21T06:17:21;16.30;5.80
10129;DHT22;5104;50.720;7.044;2022-08-21T06:19:54;16.40;1.00
10129;DHT22;5104;50.720;7.044;2022-08-21T06:22:21;16.50;1.00
10129;DHT22;5104;50.720;7.044;2022-08-21T06:24:48;16.60;1.00
10129;DHT22;5104;50.720;7.044;2022-08-21T06:27:17;16.80;99.90
10129;DHT22;5104;50.720;7.044;2022-08-21T06:29:44;16.80;99.90
10129;DHT22;5104;50.720;7.044;2022-08-21T06:32:11;16.90;1.00
10129;DHT22;5104;50.720;7.044;2022-08-21T06:34:39;17.10;86.70
10129;DHT22;5104;50.720;7.044;2022-08-21T06:37:06;17.30;65.50
10129;DHT22;5104;50.720;7.044;2022-08-21T06:39:34;17.50;99.90
10129;DHT22;5104;50.720;7.044;2022-08-21T06:42:01;17.50;1.00
10129;DHT22;5104;50.720;7.044;2022-08-21T06:44:29;17.60;1.00
10129;DHT22;5104;50.720;7.044;2022-08-21T06:46:57;17.80;99.90
10129;DHT22;5104;50.720;7.044;2022-08-21T06:49:24;17.90;99.90
10129;DHT22;5104;50.720;7.044;2022-08-21T06:51:50;18.00;1.00
10129;DHT22;5104;50.720;7.044;2022-08-21T06:54:17;18.20;1.00
10129;DHT22;5104;50.720;7.044;2022-08-21T06:56:44;18.30;1.00
10129;DHT22;5104;50.720;7.044;2022-08-21T06:59:11;18.50;1.00
10129;DHT22;5104;50.720;7.044;2022-08-21T07:01:40;18.60;99.90
10129;DHT22;5104;50.720;7.044;2022-08-21T07:04:07;18.60;99.90
10129;DHT22;5104;50.720;7.044;2022-08-21T07:06:34;18.50;99.90
10129;DHT22;5104;50.720;7.044;2022-08-21T07:09:01;18.50;99.90
10129;DHT22;5104;50.720;7.044;2022-08-21T07:11:28;18.70;52.50
10129;DHT22;5104;50.720;7.044;2022-08-21T07:13:56;18.80;1.00
10129;DHT22;5104;50.720;7.044;2022-08-21T07:16:24;19.00;1.00
10129;DHT22;5104;50.720;7.044;2022-08-21T07:18:52;19.20;1.00
10129;DHT22;5104;50.720;7.044;2022-08-21T07:21:19;19.30;1.00
10129;DHT22;5104;50.720;7.044;2022-08-21T07:26:20;19.50;99.90
10129;DHT22;5104;50.720;7.044;2022-08-21T07:28:47;19.60;99.90
10129;DHT22;5104;50.720;7.044;2022-08-21T07:31:17;19.70;99.90
10129;DHT22;5104;50.720;7.044;2022-08-21T07:33:44;19.90;99.90
10129;DHT22;5104;50.720;7.044;2022-08-21T07:36:13;19.90;99.90
10129;DHT22;5104;50.720;7.044;2022-08-21T07:38:39;20.10;99.90
10129;DHT22;5104;50.720;7.044;2022-08-21T07:41:12;20.20;93.20
10129;DHT22;5104;50.720;7.044;2022-08-21T07:43:41;20.20;99.90
10129;DHT22;5104;50.720;7.044;2022-08-21T07:46:08;20.30;99.90
10129;DHT22;5104;50.720;7.044;2022-08-21T07:48:35;20.50;40.40
10129;DHT22;5104;50.720;7.044;2022-08-21T07:51:07;20.60;1.00
10129;DHT22;5104;50.720;7.044;2022-08-21T07:53:36;20.50;1.00
10129;DHT22;5104;50.720;7.044;2022-08-21T07:56:04;20.60;1.00
10129;DHT22;5104;50.720;7.044;2022-08-21T07:58:31;20.80;1.00
10129;DHT22;5104;50.720;7.044;2022-08-21T08:00:58;21.00;1.00
10129;DHT22;5104;50.720;7.044;2022-08-21T08:03:25;21.00;1.00
10129;DHT22;5104;50.720;7.044;2022-08-21T08:05:52;21.20;1.00
10129;DHT22;5104;50.720;7.044;2022-08-21T08:08:19;21.30;1.00
10129;DHT22;5104;50.720;7.044;2022-08-21T08:10:47;21.50;1.00
10129;DHT22;5104;50.720;7.044;2022-08-21T08:13:15;21.50;1.00
10129;DHT22;5104;50.720;7.044;2022-08-21T08:15:42;21.60;1.00
10129;DHT22;5104;50.720;7.044;2022-08-21T08:18:09;21.60;1.00
10129;DHT22;5104;50.720;7.044;2022-08-21T08:20:36;21.70;1.00
10129;DHT22;5104;50.720;7.044;2022-08-21T08:23:03;21.70;1.00
10129;DHT22;5104;50.720;7.044;2022-08-21T08:25:30;21.80;1.00
10129;DHT22;5104;50.720;7.044;2022-08-21T08:27:58;21.90;1.00
10129;DHT22;5104;50.720;7.044;2022-08-21T08:30:25;22.00;99.90
10129;DHT22;5104;50.720;7.044;2022-08-21T08:32:52;22.00;99.90
10129;DHT22;5104;50.720;7.044;2022-08-21T08:35:19;21.90;99.90
10129;DHT22;5104;50.720;7.044;2022-08-21T08:37:45;22.00;99.90
10129;DHT22;5104;50.720;7.044;2022-08-21T08:40:15;22.00;99.90
10129;DHT22;5104;50.720;7.044;2022-08-21T08:42:45;22.10;99.90
10129;DHT22;5104;50.720;7.044;2022-08-21T08:45:17;22.20;99.90
10129;DHT22;5104;50.720;7.044;2022-08-21T08:47:47;22.30;99.90
10129;DHT22;5104;50.720;7.044;2022-08-21T08:50:19;22.40;99.90
10129;DHT22;5104;50.720;7.044;2022-08-21T08:52:51;22.50;99.90
10129;DHT22;5104;50.720;7.044;2022-08-21T08:55:21;22.40;99.90
10129;DHT22;5104;50.720;7.044;2022-08-21T08:57:51;22.50;99.90
10129;DHT22;5104;50.720;7.044;2022-08-21T09:00:21;22.40;99.90
10129;DHT22;5104;50.720;7.044;2022-08-21T09:02:54;22.10;99.90
10129;DHT22;5104;50.720;7.044;2022-08-21T09:05:24;22.10;99.90
10129;DHT22;5104;50.720;7.044;2022-08-21T09:08:08;22.30;99.90
10129;DHT22;5104;50.720;7.044;2022-08-21T09:10:47;22.30;99.90
10129;DHT22;5104;50.720;7.044;2022-08-21T09:13:21;22.10;99.90
10129;DHT22;5104;50.720;7.044;2022-08-21T09:15:58;22.40;99.90
10129;DHT22;5104;50.720;7.044;2022-08-21T09:18:38;22.70;99.90
10129;DHT22;5104;50.720;7.044;2022-08-21T09:21:15;22.90;99.90
10129;DHT22;5104;50.720;7.044;2022-08-21T09:23:52;23.20;99.90
10129;DHT22;5104;50.720;7.044;2022-08-21T09:26:24;23.20;99.90
10129;DHT22;5104;50.720;7.044;2022-08-21T09:28:54;23.30;99.90
10129;DHT22;5104;50.720;7.044;2022-08-21T09:31:26;23.40;99.90
10129;DHT22;5104;50.720;7.044;2022-08-21T09:33:58;23.50;99.90
10129;DHT22;5104;50.720;7.044;2022-08-21T09:36:33;23.50;99.90
10129;DHT22;5104;50.720;7.044;2022-08-21T09:39:00;23.60;99.90
10129;DHT22;5104;50.720;7.044;2022-08-21T09:41:32;23.20;99.90
10129;DHT22;5104;50.720;7.044;2022-08-21T09:44:01;23.40;99.90
10129;DHT22;5104;50.720;7.044;2022-08-21T09:46:29;23.50;99.90
10129;DHT22;5104;50.720;7.044;2022-08-21T09:48:58;23.50;99.90
10129;DHT22;5104;50.720;7.044;2022-08-21T09:51:30;23.50;90.30
10129;DHT22;5104;50.720;7.044;2022-08-21T09:54:10;23.50;77.50
10129;DHT22;5104;50.720;7.044;2022-08-21T09:56:52;23.70;70.80
10129;DHT22;5104;50.720;7.044;2022-08-21T09:59:37;23.70;52.50
10129;DHT22;5104;50.720;7.044;2022-08-21T10:02:26;23.70;41.90
10129;DHT22;5104;50.720;7.044;2022-08-21T10:04:56;23.90;48.70
10129;DHT22;5104;50.720;7.044;2022-08-21T10:07:28;24.10;27.90
10129;DHT22;5104;50.720;7.044;2022-08-21T10:10:02;24.30;19.90
10129;DHT22;5104;50.720;7.044;2022-08-21T10:12:37;24.30;6.20
10129;DHT22;5104;50.720;7.044;2022-08-21T10:15:15;24.50;1.00
10129;DHT22;5104;50.720;7.044;2022-08-21T10:17:55;24.50;1.00
10129;DHT22;5104;50.720;7.044;2022-08-21T10:20:36;24.60;1.00
10129;DHT22;5104;50.720;7.044;2022-08-21T10:23:15;24.70;1.00
10129;DHT22;5104;50.720;7.044;2022-08-21T10:25:50;24.80;1.00
10129;DHT22;5104;50.720;7.044;2022-08-21T10:28:24;24.60;1.00
10129;DHT22;5104;50.720;7.044;2022-08-21T10:30:59;24.70;1.00
10129;DHT22;5104;50.720;7.044;2022-08-21T10:33:38;24.80;1.00
10129;DHT22;5104;50.720;7.044;2022-08-21T10:36:14;24.90;1.00
10129;DHT22;5104;50.720;7.044;2022-08-21T10:39:06;25.00;1.00
10129;DHT22;5104;50.720;7.044;2022-08-21T10:41:59;25.00;1.00
10129;DHT22;5104;50.720;7.044;2022-08-21T10:44:35;24.80;1.00
10129;DHT22;5104;50.720;7.044;2022-08-21T10:47:08;24.70;1.00
10129;DHT22;5104;50.720;7.044;2022-08-21T10:49:44;24.80;1.00
10129;DHT22;5104;50.720;7.044;2022-08-21T10:52:30;24.70;1.00
10129;DHT22;5104;50.720;7.044;2022-08-21T10:55:06;24.90;1.00
10129;DHT22;5104;50.720;7.044;2022-08-21T10:57:41;25.30;1.00
10129;DHT22;5104;50.720;7.044;2022-08-21T11:00:13;25.20;1.00
10129;DHT22;5104;50.720;7.044;2022-08-21T11:02:44;25.40;1.00
10129;DHT22;5104;50.720;7.044;2022-08-21T11:05:19;25.50;1.00
10129;DHT22;5104;50.720;7.044;2022-08-21T11:07:53;25.60;1.00
10129;DHT22;5104;50.720;7.044;2022-08-21T11:10:23;25.80;1.00
10129;DHT22;5104;50.720;7.044;2022-08-21T11:12:53;25.80;1.00
10129;DHT22;5104;50.720;7.044;2022-08-21T11:15:34;25.90;1.00
10129;DHT22;5104;50.720;7.044;2022-08-21T11:18:15;25.90;1.00
10129;DHT22;5104;50.720;7.044;2022-08-21T11:20:49;26.10;1.00
10129;DHT22;5104;50.720;7.044;2022-08-21T11:23:22;26.20;1.00
10129;DHT22;5104;50.720;7.044;2022-08-21T11:25:53;26.30;1.00
10129;DHT22;5104;50.720;7.044;2022-08-21T11:28:24;26.30;1.00
10129;DHT22;5104;50.720;7.044;2022-08-21T11:31:00;26.20;1.00
10129;DHT22;5104;50.720;7.044;2022-08-21T11:33:41;26.00;1.00
10129;DHT22;5104;50.720;7.044;2022-08-21T11:36:15;26.00;1.00
10129;DHT22;5104;50.720;7.044;2022-08-21T11:38:53;26.10;1.00
10129;DHT22;5104;50.720;7.044;2022-08-21T11:41:28;25.90;1.00
10129;DHT22;5104;50.720;7.044;2022-08-21T11:44:02;25.90;1.00
10129;DHT22;5104;50.720;7.044;2022-08-21T11:46:35;25.80;1.00
10129;DHT22;5104;50.720;7.044;2022-08-21T11:49:21;25.60;1.00
10129;DHT22;5104;50.720;7.044;2022-08-21T11:52:08;25.80;1.00
10129;DHT22;5104;50.720;7.044;2022-08-21T11:54:42;26.10;1.00
10129;DHT22;5104;50.720;7.044;2022-08-21T11:57:16;26.10;1.00
10129;DHT22;5104;50.720;7.044;2022-08-21T11:59:48;26.30;1.00
10129;DHT22;5104;50.720;7.044;2022-08-21T12:02:19;26.20;1.00
10129;DHT22;5104;50.720;7.044;2022-08-21T12:04:49;26.50;1.00
10129;DHT22;5104;50.720;7.044;2022-08-21T12:07:32;26.60;1.00
10129;DHT22;5104;50.720;7.044;2022-08-21T12:10:00;26.80;1.00
10129;DHT22;5104;50.720;7.044;2022-08-21T12:12:30;27.00;1.00
10129;DHT22;5104;50.720;7.044;2022-08-21T12:15:24;26.90;1.00
10129;DHT22;5104;50.720;7.044;2022-08-21T12:18:02;26.90;1.00
10129;DHT22;5104;50.720;7.044;2022-08-21T12:20:39;27.00;1.00
10129;DHT22;5104;50.720;7.044;2022-08-21T12:23:26;27.00;1.00
10129;DHT22;5104;50.720;7.044;2022-08-21T12:28:46;27.30;1.00
10129;DHT22;5104;50.720;7.044;2022-08-21T12:31:24;27.20;1.00
10129;DHT22;5104;50.720;7.044;2022-08-21T12:33:58;26.90;1.00
10129;DHT22;5104;50.720;7.044;2022-08-21T12:36:34;26.80;1.00
10129;DHT22;5104;50.720;7.044;2022-08-21T12:39:09;26.50;1.00
10129;DHT22;5104;50.720;7.044;2022-08-21T12:41:44;26.50;1.00
10129;DHT22;5104;50.720;7.044;2022-08-21T12:44:14;26.80;1.00
10129;DHT22;5104;50.720;7.044;2022-08-21T12:46:48;27.10;1.00
10129;DHT22;5104;50.720;7.044;2022-08-21T12:49:22;27.20;1.00
10129;DHT22;5104;50.720;7.044;2022-08-21T12:51:54;27.30;1.00
10129;DHT22;5104;50.720;7.044;2022-08-21T12:54:26;27.60;1.00
10129;DHT22;5104;50.720;7.044;2022-08-21T12:56:59;27.70;1.00
10129;DHT22;5104;50.720;7.044;2022-08-21T12:59:26;27.40;1.00
10129;DHT22;5104;50.720;7.044;2022-08-21T13:01:54;27.40;1.00
10129;DHT22;5104;50.720;7.044;2022-08-21T13:04:26;27.20;1.00
10129;DHT22;5104;50.720;7.044;2022-08-21T13:06:59;27.50;1.00
10129;DHT22;5104;50.720;7.044;2022-08-21T13:09:29;27.50;1.00
10129;DHT22;5104;50.720;7.044;2022-08-21T13:11:57;27.70;1.00
10129;DHT22;5104;50.720;7.044;2022-08-21T13:14:29;27.60;1.00
10129;DHT22;5104;50.720;7.044;2022-08-21T13:16:58;27.90;1.00
10129;DHT22;5104;50.720;7.044;2022-08-21T13:19:27;28.10;1.00
10129;DHT22;5104;50.720;7.044;2022-08-21T13:21:55;28.20;1.00
10129;DHT22;5104;50.720;7.044;2022-08-21T13:24:28;28.30;1.00
10129;DHT22;5104;50.720;7.044;2022-08-21T13:26:56;28.10;1.00
10129;DHT22;5104;50.720;7.044;2022-08-21T13:29:28;28.30;1.00
10129;DHT22;5104;50.720;7.044;2022-08-21T13:31:58;28.40;1.00
10129;DHT22;5104;50.720;7.044;2022-08-21T13:34:30;28.30;1.00
10129;DHT22;5104;50.720;7.044;2022-08-21T13:37:02;28.70;1.00
10129;DHT22;5104;50.720;7.044;2022-08-21T13:39:31;28.80;1.00
10129;DHT22;5104;50.720;7.044;2022-08-21T13:42:01;28.80;1.00
10129;DHT22;5104;50.720;7.044;2022-08-21T13:44:34;28.80;1.00
10129;DHT22;5104;50.720;7.044;2022-08-21T13:47:03;28.80;1.00
10129;DHT22;5104;50.720;7.044;2022-08-21T13:49:32;28.80;1.00
10129;DHT22;5104;50.720;7.044;2022-08-21T13:51:59;28.60;1.00
10129;DHT22;5104;50.720;7.044;2022-08-21T13:54:32;28.70;1.00
10129;DHT22;5104;50.720;7.044;2022-08-21T13:57:01;28.60;1.00
10129;DHT22;5104;50.720;7.044;2022-08-21T13:59:31;28.60;1.00
10129;DHT22;5104;50.720;7.044;2022-08-21T14:02:00;28.30;1.00
10129;DHT22;5104;50.720;7.044;2022-08-21T14:04:33;28.40;1.00
10129;DHT22;5104;50.720;7.044;2022-08-21T14:07:01;28.40;1.00
10129;DHT22;5104;50.720;7.044;2022-08-21T14:09:32;28.40;1.00
10129;DHT22;5104;50.720;7.044;2022-08-21T14:12:12;28.40;1.00
10129;DHT22;5104;50.720;7.044;2022-08-21T14:14:40;28.20;1.00
10129;DHT22;5104;50.720;7.044;2022-08-21T14:17:10;28.00;1.00
10129;DHT22;5104;50.720;7.044;2022-08-21T14:19:41;27.70;1.00
10129;DHT22;5104;50.720;7.044;2022-08-21T14:22:30;27.70;1.00
10129;DHT22;5104;50.720;7.044;2022-08-21T14:25:03;27.70;1.00
10129;DHT22;5104;50.720;7.044;2022-08-21T14:27:33;27.80;1.00
10129;DHT22;5104;50.720;7.044;2022-08-21T14:30:07;27.70;1.00
10129;DHT22;5104;50.720;7.044;2022-08-21T14:32:39;27.80;1.00
10129;DHT22;5104;50.720;7.044;2022-08-21T14:35:07;27.70;1.00
10129;DHT22;5104;50.720;7.044;2022-08-21T14:37:35;27.40;1.00
10129;DHT22;5104;50.720;7.044;2022-08-21T14:40:03;27.30;1.00
10129;DHT22;5104;50.720;7.044;2022-08-21T14:42:31;27.20;1.00
10129;DHT22;5104;50.720;7.044;2022-08-21T14:45:01;27.20;1.00
10129;DHT22;5104;50.720;7.044;2022-08-21T14:47:29;27.10;1.00
10129;DHT22;5104;50.720;7.044;2022-08-21T14:49:55;27.10;1.00
10129;DHT22;5104;50.720;7.044;2022-08-21T14:52:22;27.30;1.00
10129;DHT22;5104;50.720;7.044;2022-08-21T14:54:49;27.50;1.00
10129;DHT22;5104;50.720;7.044;2022-08-21T14:57:16;27.90;1.00
10129;DHT22;5104;50.720;7.044;2022-08-21T14:59:45;28.10;1.00
10129;DHT22;5104;50.720;7.044;2022-08-21T15:02:12;28.10;1.00
10129;DHT22;5104;50.720;7.044;2022-08-21T15:04:39;28.30;1.00
10129;DHT22;5104;50.720;7.044;2022-08-21T15:07:07;28.50;1.00
10129;DHT22;5104;50.720;7.044;2022-08-21T15:09:34;28.10;1.00
10129;DHT22;5104;50.720;7.044;2022-08-21T15:12:02;27.90;1.00
10129;DHT22;5104;50.720;7.044;2022-08-21T15:14:32;27.70;1.00
10129;DHT22;5104;50.720;7.044;2022-08-21T15:17:02;27.80;1.00
10129;DHT22;5104;50.720;7.044;2022-08-21T15:19:29;27.80;1.00
10129;DHT22;5104;50.720;7.044;2022-08-21T15:21:57;27.80;1.00
10129;DHT22;5104;50.720;7.044;2022-08-21T15:24:23;27.70;1.00
10129;DHT22;5104;50.720;7.044;2022-08-21T15:26:51;27.50;1.00
10129;DHT22;5104;50.720;7.044;2022-08-21T15:29:19;27.50;1.00
10129;DHT22;5104;50.720;7.044;2022-08-21T15:31:51;27.30;1.00
10129;DHT22;5104;50.720;7.044;2022-08-21T15:34:21;27.20;1.00
10129;DHT22;5104;50.720;7.044;2022-08-21T15:36:48;27.00;1.00
10129;DHT22;5104;50.720;7.044;2022-08-21T15:39:15;27.00;1.00
10129;DHT22;5104;50.720;7.044;2022-08-21T15:41:43;27.00;1.00
10129;DHT22;5104;50.720;7.044;2022-08-21T15:44:11;26.90;1.00
10129;DHT22;5104;50.720;7.044;2022-08-21T15:46:39;26.70;1.00
10129;DHT22;5104;50.720;7.044;2022-08-21T15:49:06;26.60;1.00
10129;DHT22;5104;50.720;7.044;2022-08-21T15:51:34;26.40;1.00
10129;DHT22;5104;50.720;7.044;2022-08-21T15:54:01;26.40;1.00
10129;DHT22;5104;50.720;7.044;2022-08-21T15:56:33;26.40;1.00
10129;DHT22;5104;50.720;7.044;2022-08-21T15:59:03;26.40;1.00
10129;DHT22;5104;50.720;7.044;2022-08-21T16:01:30;26.30;1.00
10129;DHT22;5104;50.720;7.044;2022-08-21T16:03:58;26.20;1.00
10129;DHT22;5104;50.720;7.044;2022-08-21T16:06:25;26.40;1.00
10129;DHT22;5104;50.720;7.044;2022-08-21T16:08:53;26.60;1.00
10129;DHT22;5104;50.720;7.044;2022-08-21T16:11:20;27.00;1.00
10129;DHT22;5104;50.720;7.044;2022-08-21T16:13:48;27.20;1.00
10129;DHT22;5104;50.720;7.044;2022-08-21T16:16:17;27.20;1.00
10129;DHT22;5104;50.720;7.044;2022-08-21T16:18:46;27.00;1.00